Time;durP1;ratioP1;P1;durP2;ratioP2;P2;SDS_P1;SDS_P2;PMS_P1;PMS_P2;Temp;Humidity;BMP_temperature;BMP_pressure;BME280_temperature;BME280_humidity;BME280_pressure;Samples;Min_cycle;Max_cycle;Signal;HPM_P1;HPM_P2
2023/10/17 00:01:54;;;;;;;8.13;2.10;;;8.80;99.90;;;;;;5092666;28;20051;-79
2023/10/17 00:04:41;;;;;;;5.55;1.17;;;8.80;99.90;;;;;;5092764;28;20051;-75
2023/10/17 00:07:27;;;;;;;7.85;1.40;;;8.80;99.90;;;;;;5092812;28;20143;-80
2023/10/17 00:10:18;;;;;;;6.47;1.30;;;8.80;99.90;;;;;;5111141;28;20160;-76
2023/10/17 00:16:30;;;;;;;3.60;1.50;;;8.90;99.90;;;;;;5033223;28;20040;-78
2023/10/17 00:19:18;;;;;;;9.57;1.70;;;8.90;99.90;;;;;;5048068;28;20049;-75
2023/10/17 00:22:04;;;;;;;7.53;1.75;;;8.90;99.90;;;;;;5087174;28;20051;-82
2023/10/17 00:25:09;;;;;;;5.55;1.50;;;8.90;99.90;;;;;;5111051;28;20104;-75
2023/10/17 00:27:55;;;;;;;7.10;1.50;;;8.90;99.90;;;;;;5092873;28;20062;-80
2023/10/17 00:30:45;;;;;;;5.80;1.42;;;8.80;99.90;;;;;;5079334;28;20055;-74
2023/10/17 00:33:37;;;;;;;6.85;1.83;;;8.90;99.90;;;;;;5092929;28;20059;-78
2023/10/17 00:36:27;;;;;;;4.40;1.60;;;8.90;99.90;;;;;;5092689;28;20047;-78
2023/10/17 00:39:38;;;;;;;8.43;1.38;;;8.90;99.90;;;;;;5092686;28;20054;-75
2023/10/17 00:42:29;;;;;;;5.53;1.10;;;8.90;99.90;;;;;;5093236;28;20059;-77
2023/10/17 00:45:16;;;;;;;4.30;1.20;;;8.90;99.90;;;;;;5092187;28;20059;-72
2023/10/17 00:48:08;;;;;;;6.03;1.52;;;8.90;99.90;;;;;;5092824;28;20043;-74
2023/10/17 00:51:21;;;;;;;8.40;1.40;;;8.80;99.90;;;;;;5093009;28;20858;-76
2023/10/17 00:54:01;;;;;;;4.70;1.52;;;8.80;99.90;;;;;;5110963;28;20411;-77
2023/10/17 00:56:47;;;;;;;5.05;1.15;;;8.80;99.90;;;;;;5079334;28;20082;-78
2023/10/17 00:59:33;;;;;;;6.55;1.33;;;8.70;99.90;;;;;;5110454;28;20044;-71
2023/10/17 01:02:23;;;;;;;8.32;2.15;;;8.70;99.90;;;;;;5110355;28;20062;-81
2023/10/17 01:05:11;;;;;;;3.30;1.40;;;8.60;99.90;;;;;;5110554;28;20057;-80
2023/10/17 01:07:57;;;;;;;4.22;1.75;;;8.50;99.90;;;;;;5092349;28;20631;-79
2023/10/17 01:10:44;;;;;;;4.28;1.27;;;8.50;99.90;;;;;;5110382;28;20044;-78
2023/10/17 01:13:30;;;;;;;9.50;1.60;;;8.40;99.90;;;;;;5092261;28;20128;-75
2023/10/17 01:16:16;;;;;;;3.60;1.20;;;8.40;99.90;;;;;;5110622;28;20047;-73
2023/10/17 01:19:06;;;;;;;4.20;1.30;;;8.30;99.90;;;;;;5078347;28;20043;-78
2023/10/17 01:21:52;;;;;;;3.67;1.30;;;8.30;99.90;;;;;;5091908;28;20083;-82
2023/10/17 01:24:40;;;;;;;13.82;2.67;;;8.20;99.90;;;;;;5079131;28;20114;-76
2023/10/17 01:27:26;;;;;;;8.95;1.63;;;8.10;99.90;;;;;;5092014;28;20567;-74
2023/10/17 01:30:12;;;;;;;5.80;1.60;;;8.10;99.90;;;;;;5092981;28;20054;-78
2023/10/17 01:32:59;;;;;;;7.43;1.70;;;8.00;99.90;;;;;;5079306;28;20471;-79
2023/10/17 01:35:45;;;;;;;6.22;1.40;;;8.00;99.90;;;;;;5092230;28;20055;-77
2023/10/17 01:38:31;;;;;;;3.25;1.33;;;7.90;99.90;;;;;;5092060;28;20048;-75
2023/10/17 01:41:18;;;;;;;4.47;1.38;;;7.90;99.90;;;;;;5092094;28;20054;-80
2023/10/17 01:44:04;;;;;;;6.18;1.40;;;7.80;99.90;;;;;;5097901;28;20142;-84
2023/10/17 01:46:50;;;;;;;7.00;1.45;;;7.80;99.90;;;;;;5096635;28;20048;-72
2023/10/17 01:49:36;;;;;;;4.85;1.35;;;7.70;99.90;;;;;;5114255;28;20044;-80
2023/10/17 01:52:24;;;;;;;13.70;1.77;;;7.70;99.90;;;;;;5114911;28;20039;-75
2023/10/17 01:55:13;;;;;;;7.45;1.52;;;7.70;99.90;;;;;;5095913;28;20423;-76
2023/10/17 01:57:59;;;;;;;6.80;1.30;;;7.70;99.90;;;;;;5097741;28;20052;-83
2023/10/17 02:00:45;;;;;;;9.80;1.35;;;7.60;99.90;;;;;;5096119;28;20491;-72
2023/10/17 02:03:31;;;;;;;6.57;1.45;;;7.60;99.90;;;;;;5083945;28;20503;-78
2023/10/17 02:06:19;;;;;;;5.50;2.25;;;7.60;99.90;;;;;;5096288;28;20079;-76
2023/10/17 02:09:22;;;;;;;5.35;2.10;;;7.50;99.90;;;;;;5084723;28;20499;-71
2023/10/17 02:12:08;;;;;;;7.10;2.28;;;7.50;99.90;;;;;;5098686;28;20044;-72
2023/10/17 02:14:56;;;;;;;9.45;3.33;;;7.50;99.90;;;;;;5098569;28;20142;-75
2023/10/17 02:17:42;;;;;;;8.48;3.90;;;7.50;99.90;;;;;;5118139;28;20157;-71
2023/10/17 02:23:19;;;;;;;10.77;3.83;;;7.60;99.90;;;;;;5100374;28;20051;-72
2023/10/17 02:26:10;;;;;;;9.05;3.50;;;7.70;99.90;;;;;;5073547;28;20043;-71
2023/10/17 02:28:59;;;;;;;9.13;3.75;;;7.70;99.90;;;;;;5095036;28;20051;-73
2023/10/17 02:31:47;;;;;;;9.15;3.47;;;7.70;99.90;;;;;;5112918;28;20079;-72
2023/10/17 02:34:34;;;;;;;8.27;3.08;;;7.70;99.90;;;;;;5094998;28;20044;-73
2023/10/17 02:37:29;;;;;;;9.35;3.03;;;7.70;99.90;;;;;;5113043;28;20116;-71
2023/10/17 02:40:23;;;;;;;10.05;4.00;;;7.70;99.90;;;;;;5094333;28;20051;-70
2023/10/17 02:43:12;;;;;;;7.43;3.35;;;7.70;99.90;;;;;;5094288;28;20415;-72
2023/10/17 02:46:04;;;;;;;9.63;3.38;;;7.70;99.90;;;;;;5094461;28;20052;-70
2023/10/17 02:48:51;;;;;;;8.43;3.42;;;7.70;99.90;;;;;;5081406;28;20055;-70
2023/10/17 02:51:38;;;;;;;8.50;3.38;;;7.70;99.90;;;;;;5112259;28;20422;-71
2023/10/17 02:54:27;;;;;;;9.25;3.25;;;7.70;99.90;;;;;;5093141;28;20401;-71
2023/10/17 02:57:13;;;;;;;13.68;3.35;;;7.80;99.90;;;;;;5094153;28;20047;-72
2023/10/17 03:00:19;;;;;;;8.05;3.28;;;7.80;99.90;;;;;;5093933;28;20056;-71
2023/10/17 03:03:14;;;;;;;10.38;3.42;;;7.80;99.90;;;;;;5112485;28;20132;-72
2023/10/17 03:06:00;;;;;;;8.80;3.65;;;7.80;99.90;;;;;;5094134;28;20112;-73
2023/10/17 03:08:51;;;;;;;7.43;3.17;;;7.80;99.90;;;;;;5094558;28;20134;-72
2023/10/17 03:11:47;;;;;;;13.38;4.30;;;7.80;99.90;;;;;;5112804;28;20100;-72
2023/10/17 03:14:40;;;;;;;11.88;3.72;;;7.80;99.90;;;;;;5093897;28;20062;-73
2023/10/17 03:17:27;;;;;;;9.73;3.25;;;7.80;99.90;;;;;;5093669;28;20093;-71
2023/10/17 03:20:13;;;;;;;9.00;3.78;;;7.80;99.90;;;;;;5093483;28;20058;-71
2023/10/17 03:23:08;;;;;;;5.65;2.70;;;7.80;99.90;;;;;;5097377;28;20132;-72
2023/10/17 03:26:01;;;;;;;7.10;3.05;;;7.80;99.90;;;;;;5112012;28;20081;-71
2023/10/17 03:28:48;;;;;;;7.55;3.20;;;7.80;99.90;;;;;;5093678;28;20058;-73
2023/10/17 03:31:38;;;;;;;5.82;2.92;;;7.80;99.90;;;;;;5093625;28;20051;-74
2023/10/17 03:34:37;;;;;;;6.82;3.50;;;7.80;99.90;;;;;;5093526;28;20044;-73
2023/10/17 03:40:19;;;;;;;9.50;3.13;;;7.80;99.90;;;;;;5093832;28;20066;-75
2023/10/17 03:43:15;;;;;;;8.05;3.45;;;7.70;99.90;;;;;;5093333;28;20055;-75
2023/10/17 03:46:05;;;;;;;8.00;2.65;;;7.70;99.90;;;;;;5111835;28;20101;-80
2023/10/17 03:48:57;;;;;;;6.53;3.20;;;7.70;99.90;;;;;;5079739;28;20165;-72
2023/10/17 03:51:47;;;;;;;8.02;3.30;;;7.60;99.90;;;;;;5093370;28;20085;-74
2023/10/17 03:54:39;;;;;;;7.00;3.20;;;7.60;99.90;;;;;;5092792;28;20058;-73
2023/10/17 03:57:27;;;;;;;9.55;3.33;;;7.50;99.90;;;;;;5110912;28;20043;-72
2023/10/17 04:00:25;;;;;;;7.97;3.22;;;7.50;99.90;;;;;;5092961;28;20047;-72
2023/10/17 04:03:19;;;;;;;7.45;2.80;;;7.40;99.90;;;;;;5092578;28;20051;-73
2023/10/17 04:09:08;;;;;;;5.95;3.05;;;7.40;99.90;;;;;;5093984;28;20398;-75
2023/10/17 04:11:58;;;;;;;7.25;3.22;;;7.30;99.90;;;;;;5067592;28;20665;-72
2023/10/17 04:14:52;;;;;;;8.73;3.50;;;7.20;99.90;;;;;;5092700;28;20051;-76
2023/10/17 04:17:38;;;;;;;7.45;3.25;;;7.20;99.90;;;;;;5107377;28;20064;-73
2023/10/17 04:20:25;;;;;;;8.43;3.28;;;7.10;99.90;;;;;;5072834;28;20411;-81
2023/10/17 04:23:21;;;;;;;8.40;3.08;;;7.10;99.90;;;;;;5073411;28;20098;-72
2023/10/17 04:26:07;;;;;;;6.15;2.92;;;7.00;99.90;;;;;;5073492;28;20454;-73
2023/10/17 04:29:00;;;;;;;10.52;3.55;;;6.90;99.90;;;;;;5072461;28;20483;-73
2023/10/17 04:31:47;;;;;;;6.78;3.10;;;6.90;99.90;;;;;;5071940;28;20488;-76
2023/10/17 04:34:33;;;;;;;7.45;3.15;;;6.90;99.90;;;;;;5072915;28;20048;-75
2023/10/17 04:37:31;;;;;;;8.15;4.57;;;6.90;99.90;;;;;;5091457;28;20055;-73
2023/10/17 04:40:28;;;;;;;9.52;2.60;;;6.90;99.90;;;;;;5072088;28;20056;-78
2023/10/17 04:46:49;;;;;;;12.38;3.10;;;6.90;99.90;;;;;;5028027;28;20489;-76
2023/10/17 04:49:36;;;;;;;4.55;2.40;;;6.90;99.90;;;;;;5012212;28;20143;-75
2023/10/17 04:52:29;;;;;;;6.00;2.30;;;6.80;99.90;;;;;;5070851;28;20139;-81
2023/10/17 04:55:18;;;;;;;8.70;2.58;;;6.80;99.90;;;;;;5072320;28;20516;-76
2023/10/17 04:58:30;;;;;;;4.85;2.45;;;6.80;99.90;;;;;;5072485;28;20090;-74
2023/10/17 05:04:33;;;;;;;6.03;2.20;;;6.70;99.90;;;;;;5073007;28;19977;-78
2023/10/17 06:18:17;;;;;;;8.55;2.72;;;6.40;99.90;;;;;;5074498;28;20399;-74
2023/10/17 06:26:47;;;;;;;6.88;2.70;;;6.40;99.90;;;;;;5074638;28;20082;-74
2023/10/17 06:35:23;;;;;;;13.40;4.03;;;6.50;99.90;;;;;;5092920;28;20567;-75
2023/10/17 06:38:09;;;;;;;7.03;3.08;;;6.60;99.90;;;;;;5078141;28;20076;-79
2023/10/17 06:41:14;;;;;;;6.03;2.90;;;6.70;99.90;;;;;;5075332;28;20055;-78
2023/10/17 06:44:08;;;;;;;6.18;2.60;;;6.70;99.90;;;;;;5093242;28;20083;-80
2023/10/17 06:52:34;;;;;;;7.00;2.85;;;6.70;99.90;;;;;;5074825;28;20487;-80
2023/10/17 06:55:28;;;;;;;9.90;3.20;;;6.70;99.90;;;;;;5074777;28;20048;-76
2023/10/17 06:58:15;;;;;;;8.75;2.80;;;6.70;99.90;;;;;;5062168;28;20052;-74
2023/10/17 07:01:04;;;;;;;7.03;2.63;;;6.70;99.90;;;;;;5074489;28;20060;-74
2023/10/17 07:03:54;;;;;;;6.50;2.80;;;6.70;99.90;;;;;;5074318;28;20094;-84
2023/10/17 07:06:40;;;;;;;6.75;3.40;;;6.80;99.90;;;;;;5092784;28;20525;-79
2023/10/17 07:09:30;;;;;;;7.78;2.75;;;6.90;99.90;;;;;;5074337;28;20055;-82
2023/10/17 07:12:16;;;;;;;6.72;2.90;;;6.80;99.90;;;;;;5074510;28;20400;-75
2023/10/17 07:15:09;;;;;;;9.95;3.33;;;6.80;99.90;;;;;;5074594;28;20384;-81
2023/10/17 07:18:43;;;;;;;7.45;3.50;;;6.80;99.90;;;;;;5072780;28;20056;-83
2023/10/17 07:24:06;;;;;;;6.68;3.38;;;6.90;99.90;;;;;;5074737;28;20010;-80
2023/10/17 07:26:53;;;;;;;7.50;3.08;;;6.90;99.90;;;;;;5074026;28;20132;-75
2023/10/17 07:29:45;;;;;;;6.43;3.47;;;6.90;99.90;;;;;;5073970;28;20052;-77
2023/10/17 07:32:44;;;;;;;7.93;2.90;;;6.90;99.90;;;;;;5061114;28;20087;-81
2023/10/17 07:35:30;;;;;;;6.43;2.47;;;6.90;99.90;;;;;;5073248;28;20094;-74
2023/10/17 07:38:16;;;;;;;6.57;2.83;;;6.90;99.90;;;;;;5072537;28;20515;-73
2023/10/17 07:41:13;;;;;;;6.57;3.22;;;6.90;99.90;;;;;;5059662;28;20058;-75
2023/10/17 07:44:08;;;;;;;5.57;2.90;;;6.90;99.90;;;;;;5073763;28;20052;-73
2023/10/17 07:47:19;;;;;;;8.35;2.80;;;6.80;99.90;;;;;;5092226;28;20055;-71
2023/10/17 07:50:12;;;;;;;6.32;2.72;;;6.80;99.90;;;;;;5091176;28;20121;-75
2023/10/17 07:53:05;;;;;;;7.88;3.17;;;6.80;99.90;;;;;;5073098;28;20488;-72
2023/10/17 07:55:52;;;;;;;14.45;4.07;;;6.90;99.90;;;;;;5073092;28;20055;-73
2023/10/17 07:58:41;;;;;;;8.40;3.90;;;7.00;99.90;;;;;;5072934;28;20078;-74
2023/10/17 08:01:41;;;;;;;10.60;4.40;;;7.10;99.90;;;;;;5073803;28;20131;-74
2023/10/17 08:04:30;;;;;;;11.43;5.05;;;7.30;99.90;;;;;;5059591;28;20411;-72
2023/10/17 08:07:22;;;;;;;7.13;3.40;;;7.50;99.90;;;;;;5090359;28;20044;-72
2023/10/17 08:10:11;;;;;;;9.73;3.22;;;7.60;99.90;;;;;;5072724;28;20048;-81
2023/10/17 08:13:01;;;;;;;10.57;2.85;;;7.70;99.90;;;;;;5073328;28;20047;-71
2023/10/17 08:15:53;;;;;;;13.13;3.38;;;7.80;99.90;;;;;;5072615;28;20504;-77
2023/10/17 08:18:42;;;;;;;6.43;2.30;;;8.00;99.90;;;;;;5071268;28;20051;-82
2023/10/17 08:21:35;;;;;;;7.53;2.08;;;8.10;99.90;;;;;;5072163;28;20054;-73
2023/10/17 08:24:44;;;;;;;6.07;2.15;;;8.30;99.90;;;;;;5072470;28;20194;-76
2023/10/17 08:30:23;;;;;;;8.52;2.05;;;8.50;99.90;;;;;;5072128;28;20052;-71
2023/10/17 08:33:11;;;;;;;8.98;2.40;;;8.60;99.90;;;;;;5071558;28;20048;-74
2023/10/17 08:36:01;;;;;;;7.57;2.00;;;8.70;99.90;;;;;;5072861;28;20421;-78
2023/10/17 08:38:47;;;;;;;8.13;2.03;;;8.90;99.90;;;;;;5072778;28;20094;-84
2023/10/17 08:41:36;;;;;;;7.50;1.70;;;9.00;99.90;;;;;;5059824;28;20146;-72
2023/10/17 08:44:29;;;;;;;13.10;2.08;;;9.10;99.90;;;;;;5072048;28;20385;-72
2023/10/17 08:47:18;;;;;;;7.78;1.90;;;9.20;99.90;;;;;;5072280;28;20105;-69
2023/10/17 08:50:08;;;;;;;5.53;1.35;;;9.30;99.90;;;;;;5089320;28;20496;-84
2023/10/17 08:52:56;;;;;;;3.95;1.50;;;9.40;99.90;;;;;;5072307;28;20629;-77
2023/10/17 08:55:42;;;;;;;8.45;1.30;;;9.40;99.90;;;;;;5072460;28;20480;-77
2023/10/17 08:58:37;;;;;;;11.00;2.00;;;9.50;99.90;;;;;;5090602;28;20067;-79
2023/10/17 09:01:23;;;;;;;5.22;0.88;;;9.60;99.90;;;;;;5058791;28;20403;-77
2023/10/17 09:04:09;;;;;;;5.50;1.50;;;9.80;99.90;;;;;;5072940;28;20774;-86
2023/10/17 09:06:59;;;;;;;5.10;1.10;;;9.90;99.90;;;;;;5072334;28;20056;-83
2023/10/17 09:09:47;;;;;;;4.53;0.82;;;10.00;99.90;;;;;;5090794;28;20048;-74
2023/10/17 09:12:42;;;;;;;5.03;1.33;;;10.00;99.90;;;;;;5075724;28;20128;-81
2023/10/17 09:15:30;;;;;;;;;;;10.10;99.90;;;;;;5072141;28;20079;-87
2023/10/17 09:18:29;;;;;;;4.68;0.70;;;10.20;99.90;;;;;;5071509;28;20304;-81
2023/10/17 09:21:20;;;;;;;2.38;0.50;;;10.30;99.90;;;;;;5072884;28;20056;-73
2023/10/17 09:24:07;;;;;;;4.13;1.17;;;10.40;99.90;;;;;;5058325;28;20055;-84
2023/10/17 09:26:56;;;;;;;4.80;0.63;;;10.50;99.90;;;;;;5072128;28;20044;-84
2023/10/17 09:29:43;;;;;;;4.15;1.00;;;10.50;99.90;;;;;;5072236;28;20106;-80
2023/10/17 09:32:43;;;;;;;3.40;0.68;;;10.50;99.90;;;;;;5072491;28;20051;-82
2023/10/17 09:35:29;;;;;;;1.90;0.57;;;10.60;99.90;;;;;;5058150;28;20518;-90
2023/10/17 09:38:16;;;;;;;5.70;0.90;;;10.60;99.90;;;;;;5072074;28;20048;-87
2023/10/17 09:41:02;;;;;;;9.00;1.25;;;10.70;99.90;;;;;;5057958;28;20450;-78
2023/10/17 09:43:53;;;;;;;7.90;1.23;;;10.80;99.90;;;;;;5071801;28;20052;-81
2023/10/17 09:46:42;;;;;;;3.88;1.27;;;10.90;99.90;;;;;;5072523;28;20060;-84
2023/10/17 09:49:44;;;;;;;3.70;1.63;;;11.00;99.90;;;;;;5071795;28;20044;-78
2023/10/17 09:52:31;;;;;;;3.20;1.08;;;11.00;99.90;;;;;;5073538;28;20056;-82
2023/10/17 09:55:18;;;;;;;6.50;1.50;;;11.10;99.90;;;;;;5090018;28;20048;-88
2023/10/17 09:58:08;;;;;;;5.90;1.50;;;11.10;99.90;;;;;;5058635;28;20487;-83
2023/10/17 10:01:00;;;;;;;4.00;1.23;;;11.20;99.90;;;;;;5070924;28;20051;-78
2023/10/17 10:03:53;;;;;;;3.78;1.25;;;11.30;99.90;;;;;;5090524;28;20044;-72
2023/10/17 10:06:39;;;;;;;7.35;1.50;;;11.30;99.90;;;;;;5075557;28;20044;-76
2023/10/17 10:09:28;;;;;;;4.03;1.45;;;11.40;99.90;;;;;;5075770;28;20059;-76
2023/10/17 10:12:14;;;;;;;5.22;1.25;;;11.50;99.90;;;;;;5061986;28;20539;-81
2023/10/17 10:15:01;;;;;;;5.75;1.42;;;11.60;99.90;;;;;;5094418;28;20094;-78
2023/10/17 10:17:49;;;;;;;4.97;1.50;;;11.60;99.90;;;;;;5075112;28;20052;-86
2023/10/17 10:20:55;;;;;;;6.20;1.23;;;11.70;99.90;;;;;;5075114;28;20082;-84
2023/10/17 10:23:43;;;;;;;5.40;1.40;;;11.90;99.90;;;;;;5092346;28;20385;-89
2023/10/17 10:26:29;;;;;;;6.20;1.98;;;12.10;99.90;;;;;;5074948;28;20048;-83
2023/10/17 10:29:22;;;;;;;5.10;1.60;;;12.20;99.90;;;;;;5077385;28;20063;-89
2023/10/17 10:32:40;;;;;;;6.30;1.98;;;12.30;99.90;;;;;;5074501;28;20059;-87
2023/10/17 10:35:26;;;;;;;6.65;2.03;;;12.40;99.90;;;;;;5060331;28;20109;-83
2023/10/17 10:38:12;;;;;;;7.43;2.05;;;12.60;99.90;;;;;;5093591;28;20063;-79
2023/10/17 10:41:06;;;;;;;6.20;1.85;;;12.70;99.90;;;;;;5075025;28;20147;-83
2023/10/17 10:43:59;;;;;;;7.50;2.00;;;12.70;99.90;;;;;;5074442;28;20048;-77
2023/10/17 10:46:45;;;;;;;9.15;2.33;;;12.90;99.90;;;;;;5078688;28;20078;-81
2023/10/17 10:49:31;;;;;;;7.32;3.00;;;13.00;99.90;;;;;;5075756;28;20058;-81
2023/10/17 10:52:24;;;;;;;8.20;2.30;;;13.10;99.90;;;;;;5093159;28;20048;-88
2023/10/17 10:55:14;;;;;;;8.60;2.17;;;13.20;99.90;;;;;;5075152;28;20078;-88
2023/10/17 10:58:01;;;;;;;7.40;2.50;;;13.20;99.90;;;;;;5073778;28;20091;-83
2023/10/17 11:00:47;;;;;;;10.02;2.83;;;13.40;99.90;;;;;;5074891;28;20048;-79
2023/10/17 11:03:40;;;;;;;11.00;2.75;;;13.50;99.90;;;;;;5077704;28;20055;-84
2023/10/17 11:06:27;;;;;;;5.93;2.50;;;14.00;99.90;;;;;;5074251;28;20082;-83
2023/10/17 11:09:23;;;;;;;6.57;2.00;;;15.00;99.90;;;;;;5060816;28;20052;-85
2023/10/17 11:12:21;;;;;;;6.25;1.95;;;15.80;99.90;;;;;;5060416;28;20060;-88
2023/10/17 11:15:18;;;;;;;8.52;2.28;;;16.90;99.90;;;;;;5060492;28;20089;-75
2023/10/17 11:18:08;;;;;;;5.38;1.77;;;17.90;99.90;;;;;;5060365;28;20068;-84
2023/10/17 11:20:55;;;;;;;5.75;2.05;;;18.60;99.90;;;;;;5059804;28;20086;-83
2023/10/17 11:23:52;;;;;;;9.88;2.20;;;20.00;98.70;;;;;;5073099;28;20048;-79
2023/10/17 11:26:42;;;;;;;4.28;1.55;;;20.90;97.20;;;;;;5073615;28;20396;-85
2023/10/17 11:29:28;;;;;;;4.78;1.58;;;21.50;95.00;;;;;;5074347;28;20066;-90
2023/10/17 11:32:14;;;;;;;3.35;1.73;;;22.00;92.90;;;;;;5075041;28;20062;-85
2023/10/17 11:35:06;;;;;;;3.70;1.60;;;22.30;90.60;;;;;;5075447;28;20367;-76
2023/10/17 11:37:52;;;;;;;5.97;1.52;;;22.60;87.70;;;;;;5074943;28;20056;-79
2023/10/17 11:40:39;;;;;;;6.45;1.77;;;22.90;87.20;;;;;;5076927;28;20048;-73
2023/10/17 11:43:28;;;;;;;3.33;1.40;;;22.60;86.40;;;;;;5069461;28;20060;-73
2023/10/17 11:46:27;;;;;;;7.25;2.08;;;21.80;86.10;;;;;;5066506;28;20070;-81
2023/10/17 11:49:32;;;;;;;6.65;1.55;;;22.70;83.50;;;;;;5065072;28;20044;-88
2023/10/17 11:52:18;;;;;;;5.75;1.55;;;23.90;78.90;;;;;;5092716;28;20043;-80
2023/10/17 11:55:11;;;;;;;7.78;1.90;;;23.60;79.10;;;;;;5062802;28;20052;-85
2023/10/17 11:57:58;;;;;;;3.45;1.20;;;24.30;78.20;;;;;;5079240;28;20058;-84
2023/10/17 12:00:44;;;;;;;7.18;1.23;;;24.60;76.20;;;;;;5074235;28;20048;-81
2023/10/17 12:03:31;;;;;;;5.85;1.27;;;25.60;74.40;;;;;;5059975;28;20062;-78
2023/10/17 12:06:17;;;;;;;5.95;2.03;;;25.20;69.40;;;;;;5076413;28;20058;-87
2023/10/17 12:09:22;;;;;;;6.70;1.40;;;25.60;70.90;;;;;;5073480;28;20527;-77
2023/10/17 12:12:08;;;;;;;9.13;1.55;;;26.40;69.50;;;;;;5062200;28;20052;-74
2023/10/17 12:14:54;;;;;;;3.95;1.30;;;26.70;66.90;;;;;;5091079;28;20514;-80
2023/10/17 12:17:41;;;;;;;2.90;1.30;;;26.50;64.80;;;;;;5073933;28;20056;-79
2023/10/17 12:20:27;;;;;;;3.83;1.30;;;26.90;64.80;;;;;;5072927;28;20097;-75
2023/10/17 12:23:14;;;;;;;5.85;1.40;;;27.30;63.40;;;;;;5060534;28;20430;-77
2023/10/17 12:26:19;;;;;;;4.53;1.60;;;27.70;63.10;;;;;;5058881;28;20060;-72
2023/10/17 12:29:05;;;;;;;5.97;1.58;;;27.80;61.80;;;;;;5091924;28;20056;-84
2023/10/17 12:31:53;;;;;;;4.30;1.15;;;27.60;61.30;;;;;;5092898;28;20051;-79
2023/10/17 12:34:41;;;;;;;4.80;1.35;;;27.50;60.60;;;;;;5091866;28;20052;-75
2023/10/17 12:37:27;;;;;;;4.65;1.40;;;28.20;60.30;;;;;;5073875;28;20082;-83
2023/10/17 12:40:21;;;;;;;5.88;1.40;;;27.50;58.10;;;;;;5060452;28;20903;-78
2023/10/17 12:43:11;;;;;;;5.03;0.95;;;27.00;59.20;;;;;;5097819;28;20055;-70
2023/10/17 12:45:57;;;;;;;4.60;0.93;;;27.40;59.90;;;;;;5083576;28;20051;-72
2023/10/17 12:48:46;;;;;;;6.65;1.25;;;27.50;58.60;;;;;;5103372;28;20052;-71
2023/10/17 12:51:33;;;;;;;6.07;1.02;;;27.40;57.70;;;;;;5105900;28;20055;-70
2023/10/17 12:54:19;;;;;;;9.00;1.15;;;27.40;56.80;;;;;;5085305;28;20044;-70
2023/10/17 12:57:06;;;;;;;3.65;1.25;;;27.30;56.90;;;;;;5098080;28;20491;-72
2023/10/17 12:59:52;;;;;;;4.03;1.35;;;26.90;57.90;;;;;;5090790;28;20047;-76
2023/10/17 13:02:39;;;;;;;4.80;1.02;;;26.80;58.90;;;;;;5073087;28;20137;-75
2023/10/17 13:05:26;;;;;;;6.47;1.20;;;26.90;57.90;;;;;;5058662;28;20055;-72
2023/10/17 13:08:14;;;;;;;7.65;2.13;;;26.80;57.60;;;;;;5090188;28;20392;-73
2023/10/17 13:11:02;;;;;;;5.05;1.55;;;26.90;56.60;;;;;;5072635;28;20056;-74
2023/10/17 13:13:48;;;;;;;3.67;1.25;;;26.90;56.70;;;;;;5045537;28;20052;-71
2023/10/17 13:16:36;;;;;;;4.45;1.48;;;26.60;55.70;;;;;;5090551;28;20110;-71
2023/10/17 13:19:24;;;;;;;5.32;1.38;;;25.30;56.00;;;;;;5071986;28;20048;-74
2023/10/17 13:22:16;;;;;;;5.78;1.50;;;24.30;58.10;;;;;;5089347;28;20074;-76
2023/10/17 13:25:03;;;;;;;4.95;1.30;;;23.20;60.30;;;;;;5072804;28;20048;-71
2023/10/17 13:27:49;;;;;;;5.95;1.30;;;21.80;62.30;;;;;;5058611;28;20522;-71
2023/10/17 13:30:37;;;;;;;4.63;1.30;;;20.90;65.70;;;;;;5072327;28;20059;-71
2023/10/17 13:33:23;;;;;;;5.20;1.20;;;20.30;67.30;;;;;;5071196;28;20501;-72
2023/10/17 13:36:16;;;;;;;5.25;1.27;;;19.50;70.00;;;;;;5090301;28;20052;-72
2023/10/17 13:39:05;;;;;;;3.95;1.35;;;19.00;69.90;;;;;;5073945;28;20063;-72
2023/10/17 13:41:51;;;;;;;4.68;1.05;;;19.60;71.30;;;;;;5076162;28;20059;-71
2023/10/17 13:44:38;;;;;;;3.70;1.50;;;19.90;69.80;;;;;;5076775;28;20056;-72
2023/10/17 13:47:25;;;;;;;6.53;1.27;;;19.90;69.90;;;;;;5075834;28;20143;-74
2023/10/17 13:50:13;;;;;;;5.68;1.08;;;20.40;70.00;;;;;;5094425;28;20055;-72
2023/10/17 13:53:06;;;;;;;4.35;1.00;;;20.40;68.90;;;;;;5094250;28;20086;-75
2023/10/17 13:55:52;;;;;;;5.90;1.65;;;19.80;69.30;;;;;;5050114;28;20553;-75
2023/10/17 13:58:41;;;;;;;5.68;1.70;;;18.90;70.80;;;;;;5075615;28;20441;-71
2023/10/17 14:01:27;;;;;;;4.97;1.48;;;18.60;72.40;;;;;;5076176;28;20463;-72
2023/10/17 14:04:14;;;;;;;4.63;1.27;;;18.40;72.40;;;;;;5094140;28;20051;-73
2023/10/17 14:07:00;;;;;;;3.30;0.93;;;18.20;74.50;;;;;;5076249;28;20195;-82
2023/10/17 14:09:46;;;;;;;4.13;1.70;;;18.00;76.40;;;;;;5077632;28;20044;-90
2023/10/17 14:12:32;;;;;;;7.93;1.50;;;18.30;75.80;;;;;;5094623;28;20047;-74
2023/10/17 14:15:18;;;;;;;5.60;1.10;;;20.10;74.20;;;;;;5096027;28;20055;-73
2023/10/17 14:18:14;;;;;;;4.22;0.80;;;21.90;71.20;;;;;;5096547;28;20048;-80
2023/10/17 14:21:23;;;;;;;5.15;1.05;;;23.30;67.20;;;;;;5077398;28;20059;-74
2023/10/17 14:24:27;;;;;;;5.07;1.17;;;24.50;64.80;;;;;;5064176;28;20272;-72
2023/10/17 14:27:13;;;;;;;3.28;0.77;;;25.90;61.80;;;;;;5078475;28;20139;-76
2023/10/17 14:30:00;;;;;;;3.90;1.23;;;26.60;59.90;;;;;;5095662;28;20040;-80
2023/10/17 14:32:46;;;;;;;2.65;0.80;;;27.20;59.10;;;;;;5075391;28;20048;-75
2023/10/17 14:35:33;;;;;;;2.95;1.05;;;27.20;59.00;;;;;;5096574;28;20181;-77
2023/10/17 14:38:19;;;;;;;4.13;1.00;;;27.20;57.20;;;;;;5076098;28;20126;-78
2023/10/17 14:41:08;;;;;;;2.13;0.82;;;26.90;57.20;;;;;;5076322;28;20143;-73
2023/10/17 14:43:55;;;;;;;3.40;1.00;;;27.20;55.70;;;;;;5063583;28;20055;-81
2023/10/17 14:46:41;;;;;;;6.28;1.38;;;27.70;56.90;;;;;;5094167;28;20051;-70
2023/10/17 14:49:27;;;;;;;4.18;1.00;;;27.90;56.80;;;;;;5078560;28;20515;-73
2023/10/17 14:52:15;;;;;;;3.13;0.90;;;27.80;55.40;;;;;;5075974;28;20059;-74
2023/10/17 14:55:02;;;;;;;5.18;1.00;;;27.90;55.30;;;;;;5063880;28;20416;-72
2023/10/17 14:57:49;;;;;;;3.63;0.85;;;28.20;55.10;;;;;;5075541;28;20048;-72
2023/10/17 15:00:35;;;;;;;3.72;0.90;;;28.00;55.10;;;;;;5048860;28;20045;-72
2023/10/17 15:03:25;;;;;;;3.15;1.15;;;28.00;54.80;;;;;;5062708;28;20077;-83
2023/10/17 15:06:11;;;;;;;4.15;1.10;;;27.90;55.00;;;;;;5078136;28;20052;-74
2023/10/17 15:08:57;;;;;;;3.28;1.00;;;27.70;54.90;;;;;;5080725;28;20086;-72
2023/10/17 15:11:43;;;;;;;4.60;1.13;;;27.20;54.80;;;;;;5081199;28;20059;-74
2023/10/17 15:14:29;;;;;;;3.13;1.10;;;26.90;54.60;;;;;;5065013;28;20056;-81
2023/10/17 15:17:15;;;;;;;3.53;1.02;;;26.50;55.10;;;;;;5074759;28;20139;-71
2023/10/17 15:20:02;;;;;;;4.70;1.58;;;26.20;55.10;;;;;;5078162;28;20503;-72
2023/10/17 15:22:49;;;;;;;2.63;0.95;;;25.20;55.60;;;;;;5073263;28;20499;-73
2023/10/17 15:25:35;;;;;;;2.22;0.90;;;23.90;57.30;;;;;;5074505;28;20059;-76
2023/10/17 15:28:21;;;;;;;3.55;1.25;;;22.40;59.10;;;;;;5075465;28;20526;-77
2023/10/17 15:31:09;;;;;;;3.17;1.25;;;21.10;61.30;;;;;;5076191;28;20048;-84
2023/10/17 15:33:55;;;;;;;4.10;1.20;;;20.10;65.10;;;;;;5093421;28;20069;-75
2023/10/17 15:36:41;;;;;;;4.80;1.30;;;19.20;66.50;;;;;;5063014;28;20052;-74
2023/10/17 15:39:30;;;;;;;5.13;1.40;;;18.50;68.60;;;;;;5074296;28;20056;-77
2023/10/17 15:42:17;;;;;;;4.28;1.10;;;17.80;71.20;;;;;;5072495;28;20475;-74
2023/10/17 15:45:05;;;;;;;7.22;1.45;;;17.40;73.30;;;;;;5061121;28;20143;-77
2023/10/17 15:47:54;;;;;;;5.32;1.40;;;16.90;75.40;;;;;;5090792;28;20165;-76
2023/10/17 15:50:41;;;;;;;4.35;1.38;;;16.40;77.30;;;;;;5091722;28;20060;-83
2023/10/17 15:53:28;;;;;;;2.55;0.82;;;16.00;79.50;;;;;;5073922;28;20052;-74
2023/10/17 15:56:14;;;;;;;4.22;1.20;;;15.70;81.40;;;;;;5059066;28;20094;-83
2023/10/17 15:59:01;;;;;;;8.23;1.30;;;15.30;83.70;;;;;;5072746;28;20055;-75
2023/10/17 16:01:47;;;;;;;3.45;1.17;;;15.00;86.00;;;;;;5091171;28;20048;-80
2023/10/17 16:04:34;;;;;;;6.35;1.13;;;14.70;88.60;;;;;;5072526;28;20048;-77
2023/10/17 16:07:20;;;;;;;2.97;1.02;;;14.40;90.70;;;;;;5059588;28;20072;-80
2023/10/17 16:10:16;;;;;;;4.90;1.17;;;14.20;92.10;;;;;;5073895;28;20056;-79
2023/10/17 16:13:02;;;;;;;7.07;1.58;;;14.00;93.50;;;;;;5059427;28;20052;-72
2023/10/17 16:15:55;;;;;;;6.50;1.88;;;13.90;94.20;;;;;;5073014;28;20131;-73
2023/10/17 16:18:41;;;;;;;6.15;1.40;;;13.80;95.00;;;;;;5072693;28;20106;-75
2023/10/17 16:21:27;;;;;;;5.13;1.10;;;13.50;95.50;;;;;;5072407;28;20488;-78
2023/10/17 16:24:13;;;;;;;5.15;1.10;;;13.30;96.30;;;;;;5045127;28;20085;-78
2023/10/17 16:27:00;;;;;;;3.97;1.05;;;13.10;97.00;;;;;;5072783;28;20056;-74
2023/10/17 16:29:46;;;;;;;7.00;1.73;;;13.00;97.50;;;;;;5073367;28;20658;-78
2023/10/17 16:32:32;;;;;;;4.38;0.95;;;12.80;98.30;;;;;;5073469;28;20051;-79
2023/10/17 16:35:18;;;;;;;6.03;1.13;;;12.70;98.80;;;;;;5072471;28;20071;-74
2023/10/17 16:38:05;;;;;;;4.05;0.90;;;12.60;99.30;;;;;;5072890;28;20052;-73
2023/10/17 16:40:54;;;;;;;4.53;1.35;;;12.40;99.70;;;;;;5090682;28;20052;-75